Time;durP1;ratioP1;P1;durP2;ratioP2;P2;SDS_P1;SDS_P2;PMS_P1;PMS_P2;Temp;Humidity;BMP_temperature;BMP_pressure;BME280_temperature;BME280_humidity;BME280_pressure;Samples;Min_cycle;Max_cycle;Signal;HPM_P1;HPM_P2
2023/02/17 00:00:24;;;;;;;17.70;14.70;;;7.50;75.70;;;7.19;66.60;98709.41;5045692;28;20448;-73
2023/02/17 00:02:56;;;;;;;16.07;14.20;;;7.50;75.70;;;7.33;66.37;98705.97;5047199;28;20436;-72
2023/02/17 00:05:24;;;;;;;18.13;14.97;;;7.60;75.70;;;7.21;66.31;98694.78;5052019;28;21056;-72
2023/02/17 00:07:51;;;;;;;19.77;13.73;;;7.60;75.90;;;7.32;66.35;98693.53;5068829;28;20445;-76
2023/02/17 00:10:20;;;;;;;16.97;13.53;;;7.60;75.50;;;7.36;66.16;98697.56;5073741;28;20446;-76
2023/02/17 00:12:47;;;;;;;17.00;14.63;;;7.60;75.50;;;7.37;66.45;98703.78;5053990;28;20461;-77
2023/02/17 00:15:14;;;;;;;18.93;15.30;;;7.70;75.40;;;7.35;66.11;98698.59;5048816;28;21246;-76
2023/02/17 00:17:41;;;;;;;20.50;14.87;;;7.60;75.40;;;7.36;66.09;98702.94;5062464;28;20484;-78
2023/02/17 00:20:10;;;;;;;16.87;13.50;;;7.70;75.50;;;7.50;65.57;98689.72;5063852;28;20568;-75
2023/02/17 00:22:37;;;;;;;16.60;13.80;;;7.70;75.50;;;7.46;66.04;98704.56;5067138;28;20449;-76
2023/02/17 00:25:05;;;;;;;16.40;14.40;;;7.70;75.30;;;7.43;65.52;98699.53;5058087;28;20465;-78
2023/02/17 00:27:33;;;;;;;18.47;14.00;;;7.70;75.10;;;7.49;65.47;98683.53;5051935;28;20531;-79
2023/02/17 00:30:01;;;;;;;17.30;14.20;;;7.80;75.00;;;7.47;65.07;98695.47;5034550;28;20442;-77
2023/02/17 00:32:28;;;;;;;16.13;12.90;;;7.90;75.00;;;7.54;65.02;98690.22;5034531;28;20817;-80
2023/02/17 00:34:57;;;;;;;15.37;12.00;;;7.80;74.90;;;7.51;65.25;98694.13;5033694;28;20857;-75
2023/02/17 00:37:25;;;;;;;15.33;12.77;;;7.80;74.70;;;7.57;64.86;98690.69;5056401;28;20467;-80
2023/02/17 00:39:52;;;;;;;15.47;12.80;;;7.90;74.70;;;7.50;65.17;98700.47;5035408;28;20464;-78
2023/02/17 00:42:19;;;;;;;15.13;11.90;;;7.90;74.50;;;7.27;65.41;98657.47;5039345;28;20463;-79
2023/02/17 00:44:48;;;;;;;16.30;12.80;;;7.90;74.50;;;7.54;64.96;98696.44;5040310;28;20482;-78
2023/02/17 00:47:15;;;;;;;13.90;12.00;;;7.90;74.30;;;7.53;64.96;98705.53;5041240;28;20455;-79
2023/02/17 00:49:42;;;;;;;14.23;12.70;;;7.90;74.40;;;7.55;65.08;98698.13;5053415;28;20451;-77
2023/02/17 00:52:10;;;;;;;16.93;12.33;;;7.90;74.40;;;7.41;65.28;98691.63;5040427;28;20459;-76
2023/02/17 00:54:38;;;;;;;14.40;11.83;;;7.90;74.40;;;7.54;64.54;98685.69;5035446;28;20465;-78
2023/02/17 00:57:05;;;;;;;13.37;11.70;;;7.90;74.40;;;7.73;63.92;98700.47;5051533;28;20502;-79
2023/02/17 00:59:34;;;;;;;16.17;12.77;;;7.90;74.30;;;7.75;63.78;98692.25;5034954;28;20520;-78
2023/02/17 01:02:02;;;;;;;14.90;11.70;;;7.90;74.30;;;7.68;64.33;98694.00;5030366;28;20449;-79
2023/02/17 01:04:30;;;;;;;15.73;11.57;;;7.90;74.20;;;7.54;64.46;98688.38;5050427;28;20874;-79
2023/02/17 01:06:57;;;;;;;13.70;11.73;;;7.90;74.30;;;7.61;63.65;98688.50;5035132;28;20460;-79
2023/02/17 01:09:24;;;;;;;14.90;12.67;;;7.90;74.20;;;7.60;64.30;98690.34;5050245;28;20934;-80
2023/02/17 01:11:52;;;;;;;12.90;11.50;;;7.90;74.40;;;7.65;63.93;98685.25;5055641;28;20453;-80
2023/02/17 01:14:19;;;;;;;15.73;12.03;;;7.90;74.40;;;7.64;64.67;98697.03;5066643;28;20449;-75
2023/02/17 01:16:49;;;;;;;14.17;11.50;;;7.80;74.30;;;7.70;64.52;98690.09;5049910;28;20470;-80
2023/02/17 01:19:19;;;;;;;14.27;12.13;;;7.90;74.60;;;7.70;64.75;98698.16;5048826;28;20462;-79
2023/02/17 01:21:46;;;;;;;12.70;10.77;;;7.90;74.60;;;7.69;64.55;98701.03;5046702;28;20551;-78
2023/02/17 01:24:14;;;;;;;13.83;11.50;;;7.90;74.40;;;7.57;64.59;98684.47;5055176;28;20827;-81
2023/02/17 01:26:41;;;;;;;13.60;11.10;;;7.80;74.60;;;7.67;64.67;98703.09;5052856;28;20499;-77
2023/02/17 01:29:09;;;;;;;13.43;11.97;;;7.80;74.60;;;7.74;64.09;98687.88;5067807;28;20441;-80
2023/02/17 01:31:40;;;;;;;14.47;11.67;;;7.90;74.70;;;7.58;64.61;98678.94;5054379;28;20465;-80
2023/02/17 01:34:07;;;;;;;13.93;10.67;;;7.90;74.50;;;7.56;64.98;98686.34;5050866;28;20451;-80
2023/02/17 01:36:35;;;;;;;11.57;9.77;;;7.80;74.50;;;7.57;64.80;98684.47;5065838;28;20565;-79
2023/02/17 01:39:05;;;;;;;12.70;11.20;;;7.70;74.60;;;7.50;64.87;98668.22;5041510;28;20526;-83
2023/02/17 01:41:32;;;;;;;14.73;10.40;;;7.80;74.70;;;7.56;64.90;98656.75;5033921;28;20452;-80
2023/02/17 01:44:16;;;;;;;14.97;10.60;;;7.80;74.60;;;7.65;64.46;98663.72;5036637;28;20487;-78
2023/02/17 01:46:46;;;;;;;11.57;10.33;;;7.80;74.60;;;7.53;64.31;98640.13;5029556;28;20481;-80
2023/02/17 01:49:25;;;;;;;11.90;10.10;;;7.80;74.70;;;7.41;64.03;98599.41;5031806;28;20462;-75
2023/02/17 01:52:01;;;;;;;13.30;10.30;;;7.80;74.70;;;7.69;64.31;98658.00;5031612;28;20468;-75
2023/02/17 01:54:35;;;;;;;12.07;9.57;;;7.80;74.60;;;7.84;64.03;98648.13;5050073;28;20531;-76
2023/02/17 01:57:03;;;;;;;13.50;10.03;;;7.90;74.60;;;7.83;64.35;98654.53;5051787;28;20506;-74
2023/02/17 01:59:31;;;;;;;11.43;10.10;;;7.90;74.50;;;7.56;63.95;98635.25;5054770;28;20895;-80
2023/02/17 02:02:01;;;;;;;11.80;10.60;;;7.90;74.50;;;7.56;64.34;98634.38;5062471;28;20463;-77
2023/02/17 02:04:33;;;;;;;11.10;9.77;;;7.90;74.50;;;7.76;64.41;98640.09;5052552;28;20815;-80
2023/02/17 02:07:03;;;;;;;11.80;10.43;;;7.90;74.50;;;7.46;64.30;98587.09;5033056;28;20452;-78
2023/02/17 02:09:37;;;;;;;10.60;9.50;;;7.90;74.40;;;7.81;63.84;98637.72;5035857;28;21105;-78
2023/02/17 02:12:20;;;;;;;13.17;10.47;;;7.90;74.50;;;7.86;63.92;98624.56;5041460;28;20451;-79
2023/02/17 02:14:50;;;;;;;11.30;9.80;;;7.90;74.50;;;7.84;64.17;98623.91;5033693;28;20506;-76
2023/02/17 02:17:31;;;;;;;11.40;9.53;;;7.90;74.50;;;7.93;63.58;98630.03;5029403;28;20560;-76
2023/02/17 02:20:39;;;;;;;15.60;10.47;;;7.90;74.50;;;7.95;63.79;98622.63;5029850;28;20471;-78
2023/02/17 02:23:41;;;;;;;12.40;9.50;;;7.90;74.70;;;8.11;64.26;98610.81;5051168;28;22795;-76
2023/02/17 02:26:38;;;;;;;10.87;9.30;;;8.10;75.30;;;7.97;66.94;98606.31;5060416;28;20825;-80
2023/02/17 02:29:45;;;;;;;12.67;9.20;;;8.10;76.20;;;7.80;67.13;98606.44;5036101;28;20459;-76
2023/02/17 02:32:37;;;;;;;13.13;9.27;;;7.90;76.90;;;7.86;68.10;98607.56;5048985;28;20484;-74
2023/02/17 02:35:12;;;;;;;15.87;9.13;;;7.90;77.80;;;7.69;67.99;98553.09;5038982;28;20461;-76
2023/02/17 02:37:48;;;;;;;13.10;9.00;;;8.00;78.20;;;8.02;67.08;98611.97;5032544;28;20502;-77
2023/02/17 02:40:22;;;;;;;10.63;8.90;;;8.00;77.70;;;7.90;68.23;98580.13;5031318;28;20450;-78
2023/02/17 02:42:50;;;;;;;12.60;8.87;;;8.10;78.10;;;8.04;68.07;98599.16;5044524;28;20588;-78
2023/02/17 02:45:19;;;;;;;12.10;8.97;;;8.10;78.60;;;8.07;68.07;98596.06;5033363;28;20482;-76
2023/02/17 02:47:50;;;;;;;8.90;7.13;;;8.10;78.50;;;7.97;68.68;98592.84;5046868;28;20580;-78
2023/02/17 02:50:23;;;;;;;10.07;9.00;;;8.00;78.60;;;8.05;67.90;98590.06;5033026;28;20463;-78
2023/02/17 02:53:09;;;;;;;12.57;9.10;;;8.10;78.30;;;8.04;68.24;98589.22;5045676;28;20499;-76
2023/02/17 02:55:52;;;;;;;10.77;8.23;;;8.20;78.40;;;8.06;67.36;98589.88;5034045;28;20533;-77
2023/02/17 02:58:24;;;;;;;11.33;7.80;;;8.20;78.40;;;8.28;66.94;98583.75;5052528;28;20475;-77
2023/02/17 03:00:59;;;;;;;11.23;7.50;;;8.30;77.60;;;8.32;65.72;98585.03;5034280;28;20467;-76
2023/02/17 03:03:39;;;;;;;8.47;6.87;;;8.40;77.30;;;8.34;65.42;98585.69;5035835;28;20451;-79
2023/02/17 03:06:19;;;;;;;14.17;7.37;;;8.40;77.30;;;8.21;66.04;98572.91;5048606;28;20451;-78
2023/02/17 03:08:52;;;;;;;8.90;7.07;;;8.40;77.20;;;8.27;66.95;98603.63;5042636;28;20954;-80
2023/02/17 03:11:31;;;;;;;10.50;6.73;;;8.30;77.50;;;8.44;65.72;98588.94;5049259;28;20459;-76
2023/02/17 03:14:02;;;;;;;9.63;7.70;;;8.40;77.60;;;8.43;65.54;98570.25;5047436;28;20452;-76
2023/02/17 03:16:30;;;;;;;8.40;7.57;;;8.40;77.10;;;8.55;66.57;98584.09;5055109;28;20779;-78
2023/02/17 03:18:58;;;;;;;8.23;7.40;;;8.50;77.50;;;8.53;66.54;98583.47;5071665;28;20466;-81
2023/02/17 03:21:31;;;;;;;8.33;7.20;;;8.50;77.80;;;8.48;66.34;98576.75;5074851;28;20456;-73
2023/02/17 03:23:59;;;;;;;7.57;6.70;;;8.50;77.60;;;8.50;66.47;98582.81;5082011;28;20474;-76
2023/02/17 03:26:26;;;;;;;9.33;7.20;;;8.50;77.60;;;8.50;66.20;98576.63;5068433;28;20456;-77
2023/02/17 03:28:53;;;;;;;8.23;6.90;;;8.50;77.60;;;8.40;66.70;98576.84;5064580;28;20458;-77
2023/02/17 03:31:21;;;;;;;7.57;5.93;;;8.40;77.70;;;8.44;66.15;98577.31;5060266;28;20515;-76
2023/02/17 03:33:49;;;;;;;10.83;6.47;;;8.40;77.50;;;8.47;66.30;98583.16;5059405;28;20447;-74
2023/02/17 03:36:18;;;;;;;7.57;6.40;;;8.50;77.70;;;8.24;65.93;98524.06;5060681;28;20454;-76
2023/02/17 03:38:45;;;;;;;8.60;6.90;;;8.60;77.30;;;8.38;66.46;98557.34;5062179;28;20467;-76
2023/02/17 03:41:12;;;;;;;8.67;6.60;;;8.50;77.30;;;8.39;65.81;98580.56;5041090;28;20487;-79
2023/02/17 03:43:39;;;;;;;8.20;6.83;;;8.40;77.40;;;8.55;65.74;98578.72;5038659;28;20462;-78
2023/02/17 03:46:11;;;;;;;9.00;7.17;;;8.50;77.30;;;8.55;66.53;98574.19;5049456;28;20453;-77
2023/02/17 03:48:40;;;;;;;8.20;7.30;;;8.60;77.60;;;8.50;66.04;98576.63;5052917;28;21144;-73
2023/02/17 03:51:13;;;;;;;8.00;7.20;;;8.50;77.60;;;8.63;65.62;98581.31;5057816;28;20455;-74
2023/02/17 03:53:43;;;;;;;8.17;6.20;;;8.60;77.40;;;8.58;64.92;98572.97;5034332;28;20457;-80
2023/02/17 03:56:11;;;;;;;7.87;6.90;;;8.60;77.10;;;8.61;65.49;98580.66;5036117;28;20446;-78
2023/02/17 03:58:38;;;;;;;7.07;6.37;;;8.60;77.40;;;8.60;65.83;98576.31;5052908;28;21359;-72
2023/02/17 04:01:07;;;;;;;10.60;6.27;;;8.60;77.10;;;8.47;66.05;98583.16;5066311;28;20451;-77
2023/02/17 04:03:35;;;;;;;8.23;6.47;;;8.60;77.10;;;8.49;65.92;98582.97;5050770;28;20451;-78
2023/02/17 04:06:04;;;;;;;7.00;6.30;;;8.50;77.30;;;8.42;66.50;98582.91;5046824;28;20464;-77
2023/02/17 04:08:32;;;;;;;7.80;7.00;;;8.50;77.40;;;8.42;66.44;98582.91;5052561;28;20517;-75
2023/02/17 04:11:02;;;;;;;8.60;6.43;;;8.40;77.60;;;8.48;66.35;98579.44;5042364;28;20447;-78
2023/02/17 04:13:30;;;;;;;8.40;7.30;;;8.50;77.70;;;8.35;66.31;98585.50;5055003;28;20944;-74
2023/02/17 04:16:00;;;;;;;8.47;7.63;;;8.40;77.70;;;8.40;67.05;98582.22;5054841;28;20448;-78
2023/02/17 04:18:27;;;;;;;8.63;7.73;;;8.40;78.30;;;8.50;66.86;98580.13;5049552;28;20984;-75
2023/02/17 04:20:55;;;;;;;8.23;7.43;;;8.50;78.20;;;8.43;67.28;98581.88;5054976;28;20474;-79
2023/02/17 04:23:22;;;;;;;11.53;8.33;;;8.40;78.50;;;8.36;67.92;98583.63;5048025;28;20543;-77
2023/02/17 04:25:50;;;;;;;9.03;8.13;;;8.40;78.40;;;8.25;67.77;98578.72;5044425;28;20478;-78
2023/02/17 04:28:20;;;;;;;10.57;8.30;;;8.30;78.50;;;8.25;67.44;98584.94;5051516;28;20611;-78
2023/02/17 04:30:49;;;;;;;10.73;9.27;;;8.30;78.80;;;8.16;68.43;98573.44;5044772;28;20499;-73
2023/02/17 04:33:17;;;;;;;8.67;7.67;;;8.20;79.10;;;8.28;68.50;98573.81;5033586;28;20492;-76
2023/02/17 04:35:45;;;;;;;10.67;9.03;;;8.30;79.50;;;8.20;69.19;98580.13;5031416;28;20474;-73
2023/02/17 04:38:12;;;;;;;9.70;8.40;;;8.20;79.50;;;8.12;68.93;98585.63;5030080;28;20480;-79
2023/02/17 04:40:39;;;;;;;12.00;9.07;;;8.20;79.50;;;8.14;68.87;98571.94;5029163;28;21108;-74
2023/02/17 04:43:07;;;;;;;10.27;8.37;;;8.10;79.60;;;8.19;69.97;98575.75;5037609;28;21193;-79
2023/02/17 04:45:37;;;;;;;10.40;8.33;;;8.20;80.00;;;8.05;69.53;98555.91;5032608;28;20472;-78
2023/02/17 04:48:04;;;;;;;10.13;9.13;;;8.10;80.00;;;8.06;69.77;98572.88;5035257;28;20468;-78
2023/02/17 04:50:32;;;;;;;9.63;8.63;;;8.10;80.00;;;8.06;69.33;98573.72;5045662;28;20464;-77
2023/02/17 04:52:58;;;;;;;9.23;8.13;;;8.10;79.80;;;8.06;69.57;98564.81;5045083;28;20481;-77
2023/02/17 04:55:26;;;;;;;9.37;8.40;;;8.20;79.80;;;8.13;69.00;98568.44;5047531;28;20850;-75
2023/02/17 04:57:53;;;;;;;9.70;8.67;;;8.20;80.00;;;8.22;68.44;98569.19;5051274;28;20475;-76
2023/02/17 05:00:21;;;;;;;8.93;8.03;;;8.30;79.50;;;8.27;68.57;98572.13;5053249;28;20526;-73
2023/02/17 05:02:50;;;;;;;8.73;7.37;;;8.30;79.30;;;8.30;68.00;98565.56;5034708;28;20459;-78
2023/02/17 05:05:19;;;;;;;8.40;7.43;;;8.40;79.10;;;8.21;67.97;98573.72;5046121;28;20461;-76
2023/02/17 05:07:47;;;;;;;9.40;8.37;;;8.30;79.10;;;8.31;68.45;98568.03;5053550;28;20738;-74
2023/02/17 05:10:15;;;;;;;12.40;9.33;;;8.30;79.20;;;7.86;68.01;98494.56;5048235;28;20476;-77
2023/02/17 05:12:43;;;;;;;8.60;7.70;;;8.30;79.00;;;8.27;68.14;98549.78;5049805;28;20520;-77
2023/02/17 05:15:12;;;;;;;9.90;8.10;;;8.40;79.20;;;8.32;67.89;98563.50;5045535;28;20514;-75
2023/02/17 05:17:39;;;;;;;11.70;8.20;;;8.40;79.00;;;8.12;67.43;98547.94;5050038;28;20476;-77
2023/02/17 05:20:10;;;;;;;9.93;8.93;;;8.30;78.90;;;8.21;68.11;98545.97;5057693;28;20858;-75
2023/02/17 05:22:37;;;;;;;9.13;7.50;;;8.30;79.30;;;8.34;67.79;98558.75;5047703;28;20459;-77
2023/02/17 05:25:05;;;;;;;8.50;7.53;;;8.30;79.20;;;8.19;68.16;98554.22;5048473;28;20443;-75
2023/02/17 05:27:33;;;;;;;8.70;7.00;;;8.30;79.00;;;8.33;67.60;98557.09;5050644;28;20436;-76
2023/02/17 05:30:00;;;;;;;11.37;7.53;;;8.30;79.10;;;8.41;67.23;98551.59;5058758;28;20449;-80
2023/02/17 05:32:27;;;;;;;9.03;7.33;;;8.40;78.70;;;8.46;66.48;98554.56;5053463;28;20460;-76
2023/02/17 05:34:55;;;;;;;8.73;7.80;;;8.50;78.50;;;8.48;66.82;98557.91;5049537;28;20456;-75
2023/02/17 05:37:23;;;;;;;10.07;7.13;;;8.50;78.60;;;8.59;65.91;98542.31;5064202;28;20975;-78
2023/02/17 05:39:50;;;;;;;14.80;8.80;;;8.60;78.00;;;8.69;66.16;98553.59;5064873;28;20831;-73
2023/02/17 05:42:18;;;;;;;7.17;6.40;;;8.70;77.80;;;8.70;65.61;98549.06;5054365;28;20441;-72
2023/02/17 05:44:45;;;;;;;9.97;6.20;;;8.80;77.80;;;8.46;65.68;98543.78;5046474;28;20902;-71
2023/02/17 05:47:12;;;;;;;8.30;6.37;;;8.80;77.30;;;8.50;65.07;98534.34;5046031;28;20479;-72
2023/02/17 05:49:39;;;;;;;12.50;6.67;;;8.80;77.00;;;8.69;65.04;98547.41;5068059;28;20453;-70
2023/02/17 05:52:06;;;;;;;7.50;5.00;;;8.80;76.70;;;8.68;64.22;98548.44;5048115;28;20507;-71
2023/02/17 05:54:35;;;;;;;7.07;5.37;;;8.80;76.30;;;8.67;64.74;98544.06;5049284;28;20982;-71
2023/02/17 05:57:02;;;;;;;6.17;4.67;;;8.90;76.20;;;8.67;64.52;98542.19;5040723;28;20546;-71
2023/02/17 05:59:29;;;;;;;6.07;4.70;;;8.90;76.00;;;8.68;63.77;98551.94;5051880;28;20485;-74
2023/02/17 06:01:57;;;;;;;7.77;5.97;;;9.00;75.60;;;8.70;63.77;98555.28;5032852;28;20554;-73
2023/02/17 06:04:24;;;;;;;6.23;4.83;;;9.00;75.50;;;8.31;63.64;98486.44;5042484;28;20531;-73
2023/02/17 06:06:51;;;;;;;7.70;5.10;;;9.10;75.50;;;8.83;63.76;98557.28;5044680;28;20462;-72
2023/02/17 06:09:19;;;;;;;5.83;4.40;;;9.00;75.50;;;8.77;63.90;98560.72;5034733;28;23815;-70
2023/02/17 06:11:47;;;;;;;7.03;5.17;;;9.00;75.80;;;8.77;64.20;98556.19;5043277;28;20491;-71
2023/02/17 06:14:15;;;;;;;6.00;5.20;;;9.10;75.80;;;8.92;63.68;98568.78;5061986;28;20446;-70
2023/02/17 06:16:42;;;;;;;7.93;5.77;;;9.10;76.00;;;8.94;64.06;98572.13;5053538;28;20479;-69
2023/02/17 06:19:09;;;;;;;6.30;4.90;;;9.20;75.80;;;8.92;64.20;98555.31;5061040;28;20481;-72
2023/02/17 06:21:37;;;;;;;8.40;5.03;;;9.10;75.90;;;8.92;64.86;98568.78;5056499;28;20466;-72
2023/02/17 06:24:05;;;;;;;6.47;4.90;;;9.10;76.00;;;9.00;64.20;98567.81;5049075;28;20463;-81
2023/02/17 06:26:32;;;;;;;7.43;5.30;;;9.10;76.30;;;8.78;64.89;98555.16;5038562;28;21334;-72
2023/02/17 06:29:00;;;;;;;10.03;5.60;;;9.10;76.50;;;9.08;64.76;98562.28;5040485;28;20453;-70
2023/02/17 06:31:28;;;;;;;9.00;6.63;;;9.20;76.90;;;9.18;64.70;98562.00;5035500;28;20965;-75
2023/02/17 06:33:55;;;;;;;10.57;6.23;;;9.20;76.50;;;9.26;63.87;98564.53;5063128;28;20478;-73
2023/02/17 06:36:23;;;;;;;6.80;5.40;;;9.40;76.80;;;9.31;64.34;98567.50;5041739;28;20535;-72
2023/02/17 06:38:50;;;;;;;8.70;6.40;;;9.40;77.10;;;9.35;64.20;98567.94;5043408;28;20501;-72
2023/02/17 06:41:17;;;;;;;8.23;6.20;;;9.40;76.50;;;9.20;64.55;98570.72;5023444;28;20574;-71
2023/02/17 06:43:45;;;;;;;8.47;6.77;;;9.40;76.50;;;9.16;64.82;98564.88;5044858;28;20523;-72
2023/02/17 06:46:13;;;;;;;7.00;5.50;;;9.30;76.80;;;8.85;65.05;98516.66;5030409;28;20464;-72
2023/02/17 06:48:40;;;;;;;6.27;4.43;;;9.30;76.90;;;9.17;65.11;98563.84;5026582;28;20925;-71
2023/02/17 06:51:08;;;;;;;7.27;5.30;;;9.30;77.00;;;9.25;64.28;98556.63;5032799;28;20464;-75
2023/02/17 06:53:35;;;;;;;7.73;5.50;;;9.40;76.50;;;9.21;64.81;98545.44;5042249;28;20589;-75
2023/02/17 06:56:02;;;;;;;6.40;5.80;;;9.40;76.70;;;9.24;64.72;98566.59;5060206;28;20461;-72
2023/02/17 06:58:31;;;;;;;5.87;5.10;;;9.40;76.70;;;9.18;65.09;98568.22;5031227;28;20561;-74
2023/02/17 07:00:58;;;;;;;6.10;5.50;;;9.40;76.70;;;9.19;64.76;98563.66;5032581;28;20496;-76
2023/02/17 07:03:27;;;;;;;6.63;4.60;;;9.40;77.00;;;9.31;64.53;98578.28;5056810;28;20519;-73
2023/02/17 07:05:57;;;;;;;5.17;4.67;;;9.40;77.00;;;8.93;65.88;98524.63;5042740;28;20842;-75
2023/02/17 07:08:24;;;;;;;6.00;4.63;;;9.40;77.40;;;9.27;66.82;98574.31;5040348;28;20450;-74
2023/02/17 07:10:51;;;;;;;8.33;4.70;;;9.50;78.00;;;9.40;67.42;98565.50;5037163;28;20466;-74
2023/02/17 07:13:19;;;;;;;5.30;3.87;;;9.50;78.50;;;9.69;66.40;98573.63;5034763;28;20554;-74
2023/02/17 07:15:45;;;;;;;8.33;4.50;;;9.70;78.60;;;9.61;66.92;98572.72;5061386;28;20499;-74
2023/02/17 07:18:13;;;;;;;8.83;7.13;;;9.80;78.50;;;9.66;66.51;98568.63;5060233;28;20502;-77
2023/02/17 07:20:41;;;;;;;6.40;4.90;;;9.80;78.50;;;9.89;66.13;98574.56;5059109;28;20514;-74
2023/02/17 07:23:08;;;;;;;5.37;4.87;;;10.00;77.50;;;9.72;67.04;98574.06;5060351;28;20450;-74
2023/02/17 07:25:35;;;;;;;8.83;5.23;;;9.90;78.70;;;9.71;67.05;98568.84;5052111;28;20575;-74
2023/02/17 07:28:03;;;;;;;8.03;5.00;;;9.90;78.80;;;9.75;67.54;98565.56;5041076;28;20460;-77
2023/02/17 07:30:30;;;;;;;7.03;4.17;;;10.00;78.10;;;9.78;68.22;98569.72;5036634;28;20461;-72
2023/02/17 07:32:57;;;;;;;4.60;4.10;;;10.00;78.50;;;9.75;67.99;98562.88;5040200;28;20537;-72
2023/02/17 07:35:24;;;;;;;7.67;4.27;;;10.10;78.50;;;9.81;68.89;98568.50;5039389;28;20980;-73
2023/02/17 07:37:53;;;;;;;3.70;3.40;;;10.10;79.00;;;9.80;69.43;98573.09;5029062;28;21037;-74
2023/02/17 07:40:20;;;;;;;5.37;4.30;;;10.10;79.70;;;9.84;69.97;98576.19;5035086;28;20485;-73
2023/02/17 07:42:48;;;;;;;3.40;3.10;;;10.00;79.70;;;9.83;69.25;98544.84;5052322;28;20950;-71
2023/02/17 07:45:15;;;;;;;8.90;3.33;;;10.10;79.80;;;9.85;69.82;98562.53;5055517;28;20613;-76
2023/02/17 07:47:42;;;;;;;5.07;3.90;;;10.10;79.90;;;10.04;69.13;98565.53;5041623;28;20459;-72
2023/02/17 07:50:11;;;;;;;5.93;3.63;;;10.10;79.90;;;9.72;70.36;98574.06;5030155;28;20469;-73
2023/02/17 07:52:38;;;;;;;3.13;2.77;;;10.10;80.10;;;9.75;70.07;98579.06;5049087;28;20456;-71
2023/02/17 07:55:07;;;;;;;5.20;3.27;;;10.10;80.10;;;9.97;69.80;98586.28;5048841;28;20465;-74
2023/02/17 07:57:34;;;;;;;4.70;2.90;;;10.10;80.20;;;9.96;69.81;98592.72;5035994;28;20457;-76
2023/02/17 08:00:02;;;;;;;3.73;3.40;;;10.10;80.40;;;10.07;69.32;98592.13;5039475;28;20540;-75
2023/02/17 08:02:29;;;;;;;3.83;3.53;;;10.20;80.30;;;9.99;69.68;98593.13;5055921;28;20632;-75
2023/02/17 08:04:57;;;;;;;5.23;3.70;;;10.20;80.30;;;9.92;70.74;98600.34;5034041;28;20459;-74
2023/02/17 08:07:24;;;;;;;5.70;3.03;;;10.20;80.30;;;9.74;69.89;98595.44;5035912;28;20466;-74
2023/02/17 08:15:22;;;;;;;4.90;3.90;;;10.10;80.80;;;9.95;70.67;98596.44;5058956;28;20459;-74
2023/02/17 08:17:50;;;;;;;5.17;3.60;;;10.10;81.00;;;10.09;70.31;98595.50;5051239;28;20468;-72
2023/02/17 08:20:17;;;;;;;5.90;3.00;;;10.20;80.60;;;10.06;70.30;98595.88;5051882;28;20465;-76
2023/02/17 08:22:44;;;;;;;4.20;3.23;;;10.20;80.60;;;9.92;70.19;98601.16;5045485;28;20455;-74
2023/02/17 08:25:11;;;;;;;4.30;3.30;;;10.20;80.60;;;10.00;70.64;98596.66;5038883;28;21052;-75
2023/02/17 08:27:40;;;;;;;3.90;3.47;;;10.20;80.70;;;10.08;70.37;98593.78;5034709;28;20455;-71
2023/02/17 08:30:09;;;;;;;19.67;18.13;;;10.20;80.70;;;10.11;70.72;98587.19;5049854;28;20514;-75
2023/02/17 08:32:36;;;;;;;5.00;3.30;;;10.30;80.80;;;9.99;70.57;98598.53;5049867;28;20952;-73
2023/02/17 08:35:05;;;;;;;4.47;3.30;;;10.20;80.70;;;10.14;70.02;98595.72;5062263;28;20495;-71
2023/02/17 08:37:33;;;;;;;4.80;3.43;;;10.30;80.80;;;10.21;70.04;98601.97;5037934;28;20502;-70
2023/02/17 08:40:00;;;;;;;4.80;3.40;;;10.30;81.00;;;10.20;70.47;98597.63;5040014;28;20472;-70
2023/02/17 08:42:28;;;;;;;6.37;3.37;;;10.40;80.70;;;10.08;70.55;98599.19;5034964;28;20459;-70
2023/02/17 08:44:57;;;;;;;8.93;3.67;;;10.30;80.90;;;10.07;70.95;98598.38;5041198;28;20467;-75
2023/02/17 08:47:24;;;;;;;5.70;2.90;;;10.30;80.90;;;9.92;71.60;98603.88;5041080;28;20858;-72
2023/02/17 08:49:51;;;;;;;5.37;2.70;;;10.30;81.00;;;9.97;70.86;98614.09;5042314;28;20474;-74
2023/02/17 08:52:18;;;;;;;4.80;3.13;;;10.30;81.20;;;10.12;71.56;98618.53;5043780;28;20480;-74
2023/02/17 08:54:45;;;;;;;5.20;3.37;;;10.30;81.30;;;10.09;70.83;98618.94;5039156;28;20938;-74
2023/02/17 08:57:13;;;;;;;3.40;3.10;;;10.30;81.40;;;10.02;71.69;98627.00;5030408;28;20543;-72
2023/02/17 08:59:40;;;;;;;5.27;2.87;;;10.40;81.60;;;9.90;72.55;98616.72;5036480;28;20482;-74
2023/02/17 09:02:10;;;;;;;3.90;3.47;;;10.30;81.80;;;9.43;72.68;98548.09;5038461;28;20529;-75
2023/02/17 09:04:37;;;;;;;4.37;3.33;;;10.20;82.00;;;10.01;72.49;98619.94;5043664;28;20478;-73
2023/02/17 09:07:05;;;;;;;3.60;2.87;;;10.20;82.10;;;10.10;72.27;98624.16;5033554;28;20467;-74
2023/02/17 09:09:33;;;;;;;7.40;3.63;;;10.20;82.20;;;10.19;71.74;98625.66;5035027;28;20534;-74
2023/02/17 09:12:02;;;;;;;6.70;3.50;;;10.30;82.30;;;10.20;71.42;98619.22;5036656;28;20464;-71
2023/02/17 09:14:29;;;;;;;5.23;3.23;;;10.40;82.40;;;10.17;72.44;98619.63;5046429;28;20536;-73
2023/02/17 09:16:57;;;;;;;4.07;3.37;;;10.40;82.40;;;10.27;72.19;98627.34;5063014;28;20815;-75
2023/02/17 09:19:26;;;;;;;6.97;3.37;;;10.40;82.70;;;10.05;72.91;98627.44;5046857;28;20482;-75
2023/02/17 09:21:55;;;;;;;3.10;2.60;;;10.30;82.70;;;10.13;72.92;98623.75;5046787;28;20483;-72
2023/02/17 09:24:23;;;;;;;3.70;2.80;;;10.30;82.90;;;10.16;72.16;98609.84;5047534;28;20460;-72
2023/02/17 09:26:50;;;;;;;3.90;3.00;;;10.40;83.10;;;10.06;73.66;98622.88;5045403;28;20463;-70
2023/02/17 09:29:18;;;;;;;4.60;3.40;;;10.40;83.10;;;10.10;73.81;98607.97;5035990;28;20457;-73
2023/02/17 09:31:45;;;;;;;3.17;2.87;;;10.30;83.60;;;9.77;73.91;98557.25;5066676;28;20456;-73
2023/02/17 09:34:12;;;;;;;4.27;3.20;;;10.30;83.80;;;10.00;73.92;98612.88;5044004;28;20478;-71
2023/02/17 09:36:42;;;;;;;3.40;3.10;;;10.30;84.10;;;10.01;74.67;98609.13;5040816;28;20483;-72
2023/02/17 09:39:12;;;;;;;3.33;3.03;;;10.30;84.50;;;10.13;74.38;98612.97;5044931;28;20469;-74
2023/02/17 09:41:44;;;;;;;3.80;3.27;;;10.30;84.70;;;9.84;75.10;98593.25;5038825;28;20550;-72
2023/02/17 09:44:20;;;;;;;4.50;3.13;;;10.30;84.70;;;10.17;74.55;98606.13;5045245;28;20488;-71
2023/02/17 09:46:57;;;;;;;4.10;3.70;;;10.40;84.90;;;9.98;75.54;98609.53;5049428;28;20472;-71
2023/02/17 09:49:28;;;;;;;3.73;3.03;;;10.30;85.30;;;10.17;74.48;98600.72;5063732;28;20938;-72
2023/02/17 09:52:04;;;;;;;3.77;3.20;;;10.40;85.40;;;10.02;75.07;98597.31;5053645;28;20470;-71
2023/02/17 09:54:41;;;;;;;4.30;3.20;;;10.30;85.40;;;10.11;75.10;98606.94;5046102;28;20465;-73
2023/02/17 09:57:18;;;;;;;3.57;3.20;;;10.30;85.60;;;10.20;74.97;98602.19;5036897;28;20495;-70
2023/02/17 09:59:50;;;;;;;3.93;3.13;;;10.30;85.80;;;10.18;75.16;98601.56;5063543;28;20480;-70
2023/02/17 10:02:26;;;;;;;3.90;3.60;;;10.40;85.70;;;9.92;74.25;98555.28;5056022;28;20466;-70
2023/02/17 10:04:54;;;;;;;4.37;3.23;;;10.40;85.50;;;10.35;74.21;98605.59;5059023;28;20458;-71
2023/02/17 10:07:29;;;;;;;3.20;2.90;;;10.50;85.70;;;10.19;74.63;98608.63;5052915;28;20449;-69
2023/02/17 10:10:06;;;;;;;3.20;2.90;;;10.50;85.70;;;9.94;75.66;98578.56;5054557;28;20449;-70
2023/02/17 10:12:40;;;;;;;4.50;3.80;;;10.40;86.40;;;10.13;75.08;98602.16;5052701;28;20463;-71
2023/02/17 10:15:15;;;;;;;3.40;2.73;;;10.40;86.60;;;9.95;76.38;98591.03;5054380;28;21016;-71
2023/02/17 10:17:51;;;;;;;4.40;3.57;;;10.40;86.80;;;10.13;76.06;98591.34;5033928;28;20473;-72
2023/02/17 10:20:22;;;;;;;8.10;3.80;;;10.40;87.20;;;10.12;76.30;98576.19;5050735;28;20519;-70
2023/02/17 10:22:57;;;;;;;3.30;2.70;;;10.40;87.30;;;10.28;76.06;98587.69;5058618;28;20453;-72
2023/02/17 10:25:43;;;;;;;8.73;3.60;;;10.50;87.30;;;10.48;75.15;98591.34;5038916;28;20452;-73
2023/02/17 10:28:18;;;;;;;3.47;3.17;;;10.60;87.00;;;10.67;74.85;98599.75;5037645;28;20458;-73
2023/02/17 10:30:54;;;;;;;4.43;3.17;;;10.70;86.50;;;10.53;74.85;98589.91;5028152;28;20453;-72
2023/02/17 10:33:29;;;;;;;3.70;3.10;;;10.70;86.50;;;10.41;75.06;98581.56;5031761;28;20460;-71
2023/02/17 10:36:11;;;;;;;5.53;2.80;;;10.70;86.60;;;10.44;75.75;98592.78;5043851;28;20456;-72
2023/02/17 10:38:49;;;;;;;2.80;2.33;;;10.60;87.10;;;10.55;74.69;98582.47;5035649;28;20866;-73
2023/02/17 10:41:21;;;;;;;2.90;2.50;;;10.80;87.10;;;10.44;75.52;98582.00;5053485;28;20571;-73